sensor_id;sensor_type;location;lat;lon;timestamp;P1;durP1;ratioP1;P2;durP2;ratioP2
6185;SDS011;3126;52.738;8.316;2023-09-07T00:00:12;5.03;;;4.30;;
6185;SDS011;3126;52.738;8.316;2023-09-07T00:05:13;5.03;;;4.63;;
6185;SDS011;3126;52.738;8.316;2023-09-07T00:10:14;7.22;;;4.15;;
6185;SDS011;3126;52.738;8.316;2023-09-07T00:15:17;5.30;;;4.80;;
6185;SDS011;3126;52.738;8.316;2023-09-07T00:20:20;6.00;;;3.97;;
6185;SDS011;3126;52.738;8.316;2023-09-07T00:25:21;6.00;;;4.35;;
6185;SDS011;3126;52.738;8.316;2023-09-07T00:30:22;4.57;;;4.18;;
6185;SDS011;3126;52.738;8.316;2023-09-07T00:35:23;4.85;;;4.45;;
6185;SDS011;3126;52.738;8.316;2023-09-07T00:40:24;7.80;;;5.10;;
6185;SDS011;3126;52.738;8.316;2023-09-07T00:45:26;4.53;;;4.13;;
6185;SDS011;3126;52.738;8.316;2023-09-07T00:50:27;5.00;;;4.55;;
6185;SDS011;3126;52.738;8.316;2023-09-07T00:55:28;4.32;;;4.00;;
6185;SDS011;3126;52.738;8.316;2023-09-07T01:00:33;6.07;;;4.85;;
6185;SDS011;3126;52.738;8.316;2023-09-07T01:05:51;7.40;;;4.93;;
6185;SDS011;3126;52.738;8.316;2023-09-07T01:10:53;5.57;;;5.07;;
6185;SDS011;3126;52.738;8.316;2023-09-07T01:15:54;6.13;;;5.50;;
6185;SDS011;3126;52.738;8.316;2023-09-07T01:20:55;5.50;;;4.70;;
6185;SDS011;3126;52.738;8.316;2023-09-07T01:25:56;6.68;;;4.82;;
6185;SDS011;3126;52.738;8.316;2023-09-07T01:30:58;5.72;;;5.20;;
6185;SDS011;3126;52.738;8.316;2023-09-07T01:35:59;5.68;;;5.18;;
6185;SDS011;3126;52.738;8.316;2023-09-07T01:41:00;5.65;;;5.15;;
6185;SDS011;3126;52.738;8.316;2023-09-07T01:46:01;5.40;;;4.90;;
6185;SDS011;3126;52.738;8.316;2023-09-07T01:51:02;6.18;;;5.50;;
6185;SDS011;3126;52.738;8.316;2023-09-07T01:56:03;9.23;;;5.75;;
6185;SDS011;3126;52.738;8.316;2023-09-07T02:01:04;6.70;;;5.80;;
6185;SDS011;3126;52.738;8.316;2023-09-07T02:06:04;5.80;;;5.10;;
6185;SDS011;3126;52.738;8.316;2023-09-07T02:11:05;5.88;;;5.25;;
6185;SDS011;3126;52.738;8.316;2023-09-07T02:16:06;6.65;;;5.28;;
6185;SDS011;3126;52.738;8.316;2023-09-07T02:21:07;6.38;;;5.60;;
6185;SDS011;3126;52.738;8.316;2023-09-07T02:26:08;6.88;;;5.88;;
6185;SDS011;3126;52.738;8.316;2023-09-07T02:31:09;8.05;;;5.70;;
6185;SDS011;3126;52.738;8.316;2023-09-07T02:36:11;8.80;;;5.80;;
6185;SDS011;3126;52.738;8.316;2023-09-07T02:41:12;8.77;;;5.47;;
6185;SDS011;3126;52.738;8.316;2023-09-07T02:46:13;6.72;;;5.28;;
6185;SDS011;3126;52.738;8.316;2023-09-07T02:51:14;7.10;;;5.65;;
6185;SDS011;3126;52.738;8.316;2023-09-07T02:56:15;6.05;;;5.45;;
6185;SDS011;3126;52.738;8.316;2023-09-07T03:01:15;7.43;;;5.88;;
6185;SDS011;3126;52.738;8.316;2023-09-07T03:06:20;6.40;;;5.82;;
6185;SDS011;3126;52.738;8.316;2023-09-07T03:11:21;6.38;;;5.78;;
6185;SDS011;3126;52.738;8.316;2023-09-07T03:16:22;7.25;;;6.55;;
6185;SDS011;3126;52.738;8.316;2023-09-07T03:21:23;7.55;;;6.75;;
6185;SDS011;3126;52.738;8.316;2023-09-07T03:26:29;7.68;;;6.70;;
6185;SDS011;3126;52.738;8.316;2023-09-07T03:31:30;8.82;;;6.15;;
6185;SDS011;3126;52.738;8.316;2023-09-07T03:36:31;11.05;;;6.95;;
6185;SDS011;3126;52.738;8.316;2023-09-07T03:41:32;9.90;;;6.90;;
6185;SDS011;3126;52.738;8.316;2023-09-07T03:46:32;7.45;;;6.18;;
6185;SDS011;3126;52.738;8.316;2023-09-07T03:51:33;7.38;;;6.68;;
6185;SDS011;3126;52.738;8.316;2023-09-07T03:56:34;9.02;;;7.40;;
6185;SDS011;3126;52.738;8.316;2023-09-07T04:01:35;8.80;;;7.90;;
6185;SDS011;3126;52.738;8.316;2023-09-07T04:06:36;10.18;;;7.30;;
6185;SDS011;3126;52.738;8.316;2023-09-07T04:11:37;10.05;;;7.82;;
6185;SDS011;3126;52.738;8.316;2023-09-07T04:16:38;10.82;;;7.88;;
6185;SDS011;3126;52.738;8.316;2023-09-07T04:21:39;9.65;;;7.95;;
6185;SDS011;3126;52.738;8.316;2023-09-07T04:26:40;9.30;;;7.70;;
6185;SDS011;3126;52.738;8.316;2023-09-07T04:31:41;10.68;;;8.20;;
6185;SDS011;3126;52.738;8.316;2023-09-07T04:36:42;9.93;;;8.15;;
6185;SDS011;3126;52.738;8.316;2023-09-07T04:41:43;9.93;;;8.00;;
6185;SDS011;3126;52.738;8.316;2023-09-07T04:46:44;10.70;;;8.25;;
6185;SDS011;3126;52.738;8.316;2023-09-07T04:51:45;13.02;;;9.07;;
6185;SDS011;3126;52.738;8.316;2023-09-07T04:56:46;11.75;;;8.50;;
6185;SDS011;3126;52.738;8.316;2023-09-07T05:01:47;12.05;;;8.63;;
6185;SDS011;3126;52.738;8.316;2023-09-07T05:06:48;10.43;;;9.32;;
6185;SDS011;3126;52.738;8.316;2023-09-07T05:11:49;9.88;;;8.88;;
6185;SDS011;3126;52.738;8.316;2023-09-07T05:16:50;11.75;;;9.88;;
6185;SDS011;3126;52.738;8.316;2023-09-07T05:21:51;13.43;;;10.40;;
6185;SDS011;3126;52.738;8.316;2023-09-07T05:26:52;11.98;;;9.15;;
6185;SDS011;3126;52.738;8.316;2023-09-07T05:31:53;12.82;;;9.68;;
6185;SDS011;3126;52.738;8.316;2023-09-07T05:36:54;14.05;;;9.90;;
6185;SDS011;3126;52.738;8.316;2023-09-07T05:41:55;12.50;;;10.27;;
6185;SDS011;3126;52.738;8.316;2023-09-07T05:46:56;12.50;;;9.55;;
6185;SDS011;3126;52.738;8.316;2023-09-07T05:51:58;11.45;;;10.18;;
6185;SDS011;3126;52.738;8.316;2023-09-07T05:56:59;13.85;;;10.10;;
6185;SDS011;3126;52.738;8.316;2023-09-07T06:02:00;12.48;;;9.63;;
6185;SDS011;3126;52.738;8.316;2023-09-07T06:07:01;10.95;;;9.82;;
6185;SDS011;3126;52.738;8.316;2023-09-07T06:12:03;15.77;;;11.27;;
6185;SDS011;3126;52.738;8.316;2023-09-07T06:17:04;11.90;;;10.55;;
6185;SDS011;3126;52.738;8.316;2023-09-07T06:22:05;10.57;;;9.55;;
6185;SDS011;3126;52.738;8.316;2023-09-07T06:27:05;12.65;;;10.27;;
6185;SDS011;3126;52.738;8.316;2023-09-07T06:32:06;10.45;;;9.25;;
6185;SDS011;3126;52.738;8.316;2023-09-07T06:37:07;12.60;;;10.05;;
6185;SDS011;3126;52.738;8.316;2023-09-07T06:42:09;12.18;;;9.48;;
6185;SDS011;3126;52.738;8.316;2023-09-07T06:47:15;10.68;;;9.13;;
6185;SDS011;3126;52.738;8.316;2023-09-07T06:52:16;10.65;;;8.05;;
6185;SDS011;3126;52.738;8.316;2023-09-07T06:57:17;10.50;;;8.50;;
6185;SDS011;3126;52.738;8.316;2023-09-07T07:02:18;11.13;;;8.15;;
6185;SDS011;3126;52.738;8.316;2023-09-07T07:07:19;12.15;;;8.35;;
6185;SDS011;3126;52.738;8.316;2023-09-07T07:12:20;8.95;;;8.02;;
6185;SDS011;3126;52.738;8.316;2023-09-07T07:17:21;8.20;;;7.32;;
6185;SDS011;3126;52.738;8.316;2023-09-07T07:22:22;8.27;;;7.32;;
6185;SDS011;3126;52.738;8.316;2023-09-07T07:27:23;9.30;;;6.90;;
6185;SDS011;3126;52.738;8.316;2023-09-07T07:32:24;10.68;;;6.85;;
6185;SDS011;3126;52.738;8.316;2023-09-07T07:37:25;8.98;;;6.85;;
6185;SDS011;3126;52.738;8.316;2023-09-07T07:42:26;8.20;;;6.85;;
6185;SDS011;3126;52.738;8.316;2023-09-07T07:47:27;7.38;;;6.65;;
6185;SDS011;3126;52.738;8.316;2023-09-07T07:52:28;11.45;;;6.50;;
6185;SDS011;3126;52.738;8.316;2023-09-07T07:57:29;9.35;;;6.38;;
6185;SDS011;3126;52.738;8.316;2023-09-07T08:02:32;8.23;;;7.43;;
6185;SDS011;3126;52.738;8.316;2023-09-07T08:07:33;8.82;;;6.28;;
6185;SDS011;3126;52.738;8.316;2023-09-07T08:12:33;8.45;;;6.15;;
6185;SDS011;3126;52.738;8.316;2023-09-07T08:17:34;8.02;;;6.22;;
6185;SDS011;3126;52.738;8.316;2023-09-07T08:22:35;7.28;;;6.57;;
6185;SDS011;3126;52.738;8.316;2023-09-07T08:27:41;7.28;;;5.70;;
6185;SDS011;3126;52.738;8.316;2023-09-07T08:32:44;7.00;;;5.53;;
6185;SDS011;3126;52.738;8.316;2023-09-07T08:37:50;6.00;;;4.90;;
6185;SDS011;3126;52.738;8.316;2023-09-07T08:42:51;9.32;;;5.68;;
6185;SDS011;3126;52.738;8.316;2023-09-07T08:47:53;6.72;;;5.43;;
6185;SDS011;3126;52.738;8.316;2023-09-07T08:52:55;6.00;;;5.28;;
6185;SDS011;3126;52.738;8.316;2023-09-07T08:57:59;6.03;;;5.18;;
6185;SDS011;3126;52.738;8.316;2023-09-07T09:03:00;6.00;;;5.45;;
6185;SDS011;3126;52.738;8.316;2023-09-07T09:08:01;5.88;;;4.90;;
6185;SDS011;3126;52.738;8.316;2023-09-07T09:13:03;6.18;;;4.72;;
6185;SDS011;3126;52.738;8.316;2023-09-07T09:18:11;5.43;;;4.93;;
6185;SDS011;3126;52.738;8.316;2023-09-07T09:23:12;6.75;;;4.88;;
6185;SDS011;3126;52.738;8.316;2023-09-07T09:28:15;5.10;;;4.70;;
6185;SDS011;3126;52.738;8.316;2023-09-07T09:33:16;6.28;;;4.57;;
6185;SDS011;3126;52.738;8.316;2023-09-07T09:38:19;5.47;;;5.00;;
6185;SDS011;3126;52.738;8.316;2023-09-07T09:43:20;6.10;;;4.85;;
6185;SDS011;3126;52.738;8.316;2023-09-07T09:48:22;5.43;;;4.70;;
6185;SDS011;3126;52.738;8.316;2023-09-07T09:53:23;7.25;;;5.20;;
6185;SDS011;3126;52.738;8.316;2023-09-07T09:58:26;6.03;;;4.45;;
6185;SDS011;3126;52.738;8.316;2023-09-07T10:03:28;4.60;;;4.00;;
6185;SDS011;3126;52.738;8.316;2023-09-07T10:08:30;5.35;;;4.60;;
6185;SDS011;3126;52.738;8.316;2023-09-07T10:13:32;4.50;;;4.20;;
6185;SDS011;3126;52.738;8.316;2023-09-07T10:18:34;7.05;;;5.07;;
6185;SDS011;3126;52.738;8.316;2023-09-07T10:28:41;5.13;;;4.30;;
6185;SDS011;3126;52.738;8.316;2023-09-07T10:33:43;6.22;;;4.25;;
6185;SDS011;3126;52.738;8.316;2023-09-07T10:38:44;4.78;;;4.38;;
6185;SDS011;3126;52.738;8.316;2023-09-07T10:43:48;6.18;;;4.88;;
6185;SDS011;3126;52.738;8.316;2023-09-07T10:48:50;5.10;;;4.55;;
6185;SDS011;3126;52.738;8.316;2023-09-07T10:53:52;6.70;;;4.30;;
6185;SDS011;3126;52.738;8.316;2023-09-07T10:58:55;6.15;;;4.57;;
6185;SDS011;3126;52.738;8.316;2023-09-07T11:03:55;4.43;;;4.03;;
6185;SDS011;3126;52.738;8.316;2023-09-07T11:08:59;4.85;;;4.45;;
6185;SDS011;3126;52.738;8.316;2023-09-07T11:14:01;5.75;;;4.85;;
6185;SDS011;3126;52.738;8.316;2023-09-07T11:19:04;6.35;;;4.63;;
6185;SDS011;3126;52.738;8.316;2023-09-07T11:34:09;5.50;;;4.22;;
6185;SDS011;3126;52.738;8.316;2023-09-07T11:39:11;5.55;;;4.40;;
6185;SDS011;3126;52.738;8.316;2023-09-07T11:44:14;4.40;;;4.05;;
6185;SDS011;3126;52.738;8.316;2023-09-07T11:49:15;6.10;;;4.35;;
6185;SDS011;3126;52.738;8.316;2023-09-07T11:54:20;5.40;;;4.50;;
6185;SDS011;3126;52.738;8.316;2023-09-07T11:59:20;4.32;;;3.92;;
6185;SDS011;3126;52.738;8.316;2023-09-07T12:04:21;5.63;;;3.92;;
6185;SDS011;3126;52.738;8.316;2023-09-07T12:09:21;6.00;;;3.80;;
6185;SDS011;3126;52.738;8.316;2023-09-07T12:14:22;7.43;;;4.18;;
6185;SDS011;3126;52.738;8.316;2023-09-07T12:19:22;4.85;;;4.10;;
6185;SDS011;3126;52.738;8.316;2023-09-07T12:24:24;5.43;;;4.50;;
6185;SDS011;3126;52.738;8.316;2023-09-07T12:29:24;4.25;;;3.78;;
6185;SDS011;3126;52.738;8.316;2023-09-07T12:34:25;4.57;;;4.10;;
6185;SDS011;3126;52.738;8.316;2023-09-07T12:39:25;4.28;;;3.88;;
6185;SDS011;3126;52.738;8.316;2023-09-07T12:44:26;4.68;;;4.28;;
6185;SDS011;3126;52.738;8.316;2023-09-07T12:49:26;4.30;;;3.95;;
6185;SDS011;3126;52.738;8.316;2023-09-07T12:54:27;5.53;;;4.20;;
6185;SDS011;3126;52.738;8.316;2023-09-07T12:59:28;5.88;;;4.38;;
6185;SDS011;3126;52.738;8.316;2023-09-07T13:04:29;4.55;;;4.15;;
6185;SDS011;3126;52.738;8.316;2023-09-07T13:09:29;6.18;;;4.03;;
6185;SDS011;3126;52.738;8.316;2023-09-07T13:14:30;4.40;;;4.00;;
6185;SDS011;3126;52.738;8.316;2023-09-07T13:19:30;4.57;;;4.20;;
6185;SDS011;3126;52.738;8.316;2023-09-07T13:24:31;7.45;;;4.32;;
6185;SDS011;3126;52.738;8.316;2023-09-07T13:29:32;6.53;;;4.18;;
6185;SDS011;3126;52.738;8.316;2023-09-07T13:34:33;4.65;;;4.03;;
6185;SDS011;3126;52.738;8.316;2023-09-07T13:39:33;5.53;;;4.03;;
6185;SDS011;3126;52.738;8.316;2023-09-07T13:44:34;4.88;;;3.80;;
6185;SDS011;3126;52.738;8.316;2023-09-07T13:49:34;4.65;;;4.20;;
6185;SDS011;3126;52.738;8.316;2023-09-07T13:54:35;6.70;;;4.15;;
6185;SDS011;3126;52.738;8.316;2023-09-07T13:59:35;6.00;;;4.35;;
6185;SDS011;3126;52.738;8.316;2023-09-07T14:04:36;4.53;;;4.13;;
6185;SDS011;3126;52.738;8.316;2023-09-07T14:09:36;6.53;;;4.25;;
6185;SDS011;3126;52.738;8.316;2023-09-07T14:14:37;29.13;;;6.65;;
6185;SDS011;3126;52.738;8.316;2023-09-07T14:19:38;5.07;;;4.68;;
6185;SDS011;3126;52.738;8.316;2023-09-07T14:24:38;6.20;;;4.88;;
6185;SDS011;3126;52.738;8.316;2023-09-07T14:29:39;6.80;;;4.32;;
6185;SDS011;3126;52.738;8.316;2023-09-07T14:34:40;4.80;;;4.38;;
6185;SDS011;3126;52.738;8.316;2023-09-07T14:39:40;4.82;;;4.40;;
6185;SDS011;3126;52.738;8.316;2023-09-07T14:44:47;7.25;;;4.35;;
6185;SDS011;3126;52.738;8.316;2023-09-07T14:49:47;7.25;;;4.20;;
6185;SDS011;3126;52.738;8.316;2023-09-07T14:54:48;4.95;;;4.47;;
6185;SDS011;3126;52.738;8.316;2023-09-07T14:59:48;6.90;;;4.20;;
6185;SDS011;3126;52.738;8.316;2023-09-07T15:04:49;7.72;;;4.55;;
6185;SDS011;3126;52.738;8.316;2023-09-07T15:09:50;6.57;;;4.55;;
6185;SDS011;3126;52.738;8.316;2023-09-07T15:14:50;5.20;;;4.72;;
6185;SDS011;3126;52.738;8.316;2023-09-07T15:19:51;4.90;;;4.40;;
6185;SDS011;3126;52.738;8.316;2023-09-07T15:24:52;5.53;;;4.97;;
6185;SDS011;3126;52.738;8.316;2023-09-07T15:29:52;4.80;;;4.40;;
6185;SDS011;3126;52.738;8.316;2023-09-07T15:34:53;6.68;;;4.13;;
6185;SDS011;3126;52.738;8.316;2023-09-07T15:39:53;4.90;;;4.03;;
6185;SDS011;3126;52.738;8.316;2023-09-07T15:44:54;5.82;;;4.13;;
6185;SDS011;3126;52.738;8.316;2023-09-07T15:49:54;5.68;;;3.95;;
6185;SDS011;3126;52.738;8.316;2023-09-07T15:54:55;3.83;;;3.53;;
6185;SDS011;3126;52.738;8.316;2023-09-07T15:59:56;5.10;;;4.47;;
6185;SDS011;3126;52.738;8.316;2023-09-07T16:04:58;6.13;;;4.60;;
6185;SDS011;3126;52.738;8.316;2023-09-07T16:09:59;5.05;;;4.57;;
6185;SDS011;3126;52.738;8.316;2023-09-07T16:15:00;5.97;;;4.72;;
6185;SDS011;3126;52.738;8.316;2023-09-07T16:20:01;5.28;;;4.25;;
6185;SDS011;3126;52.738;8.316;2023-09-07T16:25:02;4.70;;;4.30;;
6185;SDS011;3126;52.738;8.316;2023-09-07T16:30:04;5.85;;;4.63;;
6185;SDS011;3126;52.738;8.316;2023-09-07T16:35:05;6.05;;;4.70;;
6185;SDS011;3126;52.738;8.316;2023-09-07T16:40:06;5.40;;;4.68;;
6185;SDS011;3126;52.738;8.316;2023-09-07T16:45:09;5.43;;;4.55;;
6185;SDS011;3126;52.738;8.316;2023-09-07T16:50:10;5.32;;;4.82;;
6185;SDS011;3126;52.738;8.316;2023-09-07T16:55:11;6.18;;;4.55;;
6185;SDS011;3126;52.738;8.316;2023-09-07T17:00:12;6.35;;;4.50;;
6185;SDS011;3126;52.738;8.316;2023-09-07T17:05:14;5.15;;;4.65;;
6185;SDS011;3126;52.738;8.316;2023-09-07T17:10:15;4.97;;;4.53;;
6185;SDS011;3126;52.738;8.316;2023-09-07T17:15:16;6.07;;;4.72;;
6185;SDS011;3126;52.738;8.316;2023-09-07T17:20:17;4.40;;;3.92;;
6185;SDS011;3126;52.738;8.316;2023-09-07T17:25:19;5.82;;;4.30;;
6185;SDS011;3126;52.738;8.316;2023-09-07T17:30:20;4.53;;;4.13;;
6185;SDS011;3126;52.738;8.316;2023-09-07T17:35:21;5.88;;;4.10;;
6185;SDS011;3126;52.738;8.316;2023-09-07T17:40:22;5.40;;;4.20;;
6185;SDS011;3126;52.738;8.316;2023-09-07T17:45:23;4.70;;;4.30;;
6185;SDS011;3126;52.738;8.316;2023-09-07T17:50:24;6.28;;;4.30;;
6185;SDS011;3126;52.738;8.316;2023-09-07T17:55:25;5.63;;;3.95;;
6185;SDS011;3126;52.738;8.316;2023-09-07T18:00:26;6.55;;;4.63;;
6185;SDS011;3126;52.738;8.316;2023-09-07T18:05:27;4.90;;;4.15;;
6185;SDS011;3126;52.738;8.316;2023-09-07T18:10:28;4.60;;;4.10;;
6185;SDS011;3126;52.738;8.316;2023-09-07T18:15:31;5.88;;;4.80;;
6185;SDS011;3126;52.738;8.316;2023-09-07T18:20:32;5.25;;;4.40;;
6185;SDS011;3126;52.738;8.316;2023-09-07T18:25:36;5.15;;;4.47;;
6185;SDS011;3126;52.738;8.316;2023-09-07T18:30:39;5.82;;;5.22;;
6185;SDS011;3126;52.738;8.316;2023-09-07T18:35:40;8.85;;;5.00;;
6185;SDS011;3126;52.738;8.316;2023-09-07T18:40:43;6.13;;;4.82;;
6185;SDS011;3126;52.738;8.316;2023-09-07T18:45:45;5.47;;;4.97;;
6185;SDS011;3126;52.738;8.316;2023-09-07T18:50:46;5.22;;;4.72;;
6185;SDS011;3126;52.738;8.316;2023-09-07T18:55:47;9.13;;;4.78;;
6185;SDS011;3126;52.738;8.316;2023-09-07T19:00:48;5.95;;;5.13;;
6185;SDS011;3126;52.738;8.316;2023-09-07T19:05:49;7.22;;;5.60;;
6185;SDS011;3126;52.738;8.316;2023-09-07T19:10:50;6.75;;;5.28;;
6185;SDS011;3126;52.738;8.316;2023-09-07T19:15:51;7.00;;;5.55;;
6185;SDS011;3126;52.738;8.316;2023-09-07T19:20:55;6.93;;;5.63;;
6185;SDS011;3126;52.738;8.316;2023-09-07T19:25:56;6.30;;;5.70;;
6185;SDS011;3126;52.738;8.316;2023-09-07T19:30:57;6.15;;;5.15;;
6185;SDS011;3126;52.738;8.316;2023-09-07T19:35:58;6.05;;;5.45;;
6185;SDS011;3126;52.738;8.316;2023-09-07T19:40:58;7.97;;;5.28;;
6185;SDS011;3126;52.738;8.316;2023-09-07T19:45:59;8.13;;;6.05;;
6185;SDS011;3126;52.738;8.316;2023-09-07T19:51:07;6.35;;;5.32;;
6185;SDS011;3126;52.738;8.316;2023-09-07T19:56:09;9.90;;;5.00;;
6185;SDS011;3126;52.738;8.316;2023-09-07T20:01:11;6.97;;;5.25;;
6185;SDS011;3126;52.738;8.316;2023-09-07T20:06:14;7.60;;;5.43;;
6185;SDS011;3126;52.738;8.316;2023-09-07T20:11:15;5.88;;;5.28;;
6185;SDS011;3126;52.738;8.316;2023-09-07T20:16:17;5.90;;;5.30;;
6185;SDS011;3126;52.738;8.316;2023-09-07T20:21:18;6.30;;;5.70;;
6185;SDS011;3126;52.738;8.316;2023-09-07T20:26:19;5.70;;;5.05;;
6185;SDS011;3126;52.738;8.316;2023-09-07T20:31:20;6.45;;;5.15;;
6185;SDS011;3126;52.738;8.316;2023-09-07T20:36:21;6.60;;;4.78;;
6185;SDS011;3126;52.738;8.316;2023-09-07T20:41:22;6.68;;;5.10;;
6185;SDS011;3126;52.738;8.316;2023-09-07T20:46:23;7.47;;;5.20;;
6185;SDS011;3126;52.738;8.316;2023-09-07T20:51:24;7.00;;;5.18;;
6185;SDS011;3126;52.738;8.316;2023-09-07T20:56:24;6.22;;;4.78;;
6185;SDS011;3126;52.738;8.316;2023-09-07T21:01:25;6.80;;;5.50;;
6185;SDS011;3126;52.738;8.316;2023-09-07T21:06:26;6.15;;;5.10;;
6185;SDS011;3126;52.738;8.316;2023-09-07T21:11:27;6.15;;;5.40;;
6185;SDS011;3126;52.738;8.316;2023-09-07T21:16:28;8.80;;;5.47;;
6185;SDS011;3126;52.738;8.316;2023-09-07T21:21:29;7.13;;;5.90;;
6185;SDS011;3126;52.738;8.316;2023-09-07T21:26:30;5.70;;;5.20;;
6185;SDS011;3126;52.738;8.316;2023-09-07T21:31:31;8.07;;;5.95;;
6185;SDS011;3126;52.738;8.316;2023-09-07T21:36:32;11.77;;;6.15;;
6185;SDS011;3126;52.738;8.316;2023-09-07T21:41:53;9.45;;;6.13;;
6185;SDS011;3126;52.738;8.316;2023-09-07T21:46:54;6.47;;;5.25;;
6185;SDS011;3126;52.738;8.316;2023-09-07T21:51:55;10.20;;;6.05;;
6185;SDS011;3126;52.738;8.316;2023-09-07T21:56:56;8.38;;;5.65;;
6185;SDS011;3126;52.738;8.316;2023-09-07T22:01:58;8.05;;;5.25;;
6185;SDS011;3126;52.738;8.316;2023-09-07T22:06:59;6.20;;;5.60;;
6185;SDS011;3126;52.738;8.316;2023-09-07T22:11:59;6.55;;;5.82;;
6185;SDS011;3126;52.738;8.316;2023-09-07T22:17:01;6.45;;;5.78;;
6185;SDS011;3126;52.738;8.316;2023-09-07T22:22:03;6.30;;;5.10;;
6185;SDS011;3126;52.738;8.316;2023-09-07T22:27:04;6.75;;;6.05;;
6185;SDS011;3126;52.738;8.316;2023-09-07T22:32:08;6.85;;;5.75;;
6185;SDS011;3126;52.738;8.316;2023-09-07T22:37:09;7.63;;;5.80;;
6185;SDS011;3126;52.738;8.316;2023-09-07T22:42:10;7.03;;;6.10;;
6185;SDS011;3126;52.738;8.316;2023-09-07T22:47:11;9.23;;;5.70;;
6185;SDS011;3126;52.738;8.316;2023-09-07T22:52:12;5.57;;;5.07;;
6185;SDS011;3126;52.738;8.316;2023-09-07T22:57:13;6.15;;;5.55;;
6185;SDS011;3126;52.738;8.316;2023-09-07T23:02:15;7.05;;;5.82;;
6185;SDS011;3126;52.738;8.316;2023-09-07T23:07:16;7.55;;;6.05;;
6185;SDS011;3126;52.738;8.316;2023-09-07T23:12:17;7.82;;;6.22;;
6185;SDS011;3126;52.738;8.316;2023-09-07T23:17:18;7.18;;;6.00;;
6185;SDS011;3126;52.738;8.316;2023-09-07T23:22:19;7.40;;;5.97;;
6185;SDS011;3126;52.738;8.316;2023-09-07T23:27:20;7.10;;;6.40;;
6185;SDS011;3126;52.738;8.316;2023-09-07T23:32:21;7.35;;;6.65;;
6185;SDS011;3126;52.738;8.316;2023-09-07T23:37:22;7.50;;;6.72;;
6185;SDS011;3126;52.738;8.316;2023-09-07T23:42:23;8.55;;;7.10;;
6185;SDS011;3126;52.738;8.316;2023-09-07T23:47:24;8.13;;;6.00;;
6185;SDS011;3126;52.738;8.316;2023-09-07T23:52:25;7.60;;;6.60;;
6185;SDS011;3126;52.738;8.316;2023-09-07T23:57:26;8.15;;;6.60;;
